Azul Frontier — HPES — position and weather

sailwx.info

Track history (hours):
 
Tides and Currents Weather Stations Pressure Air Temp Water Temp Dewpoint Dewpoint Depression Visibility Wind Speed Wind Dir Waves Ship Positions

Azul Frontier

Last reported at 2018-Jun-20 01:53 UTC. Time now 2018-Jun-20 18:52 UTC.
Position N 28°19' W 012°50'.

Length 106 m; draft 4.2 m.

Type: Ship (hazmat cat A). MMSI: 374159000.

Date/timePositionNaut miles runAvg speedWind from/ knotsBaromVisibWave heightAir tempDewpointWater temp
2018-Jun-20 01:53N 28°19' W 012°50'4 9.2
2018-Jun-20 01:27N 28°15' W 012°53'4 9.2
2018-Jun-20 00:58N 28°11' W 012°55'5 9.1
2018-Jun-20 00:23N 28°07' W 012°58'3 9.0
2018-Jun-20 00:00N 28°04' W 013°00'7 8.9
2018-Jun-19 23:15N 27°59' W 013°05'24 9.3
2018-Jun-19 20:39N 27°37' W 013°18'11 9.8
2018-Jun-19 19:34N 27°28' W 013°24'23 0.8
2018-Jun-18 16:11N 27°06' W 013°26'  
Track history (hours):
 
Tides and Currents Weather Stations Pressure Air Temp Water Temp Dewpoint Dewpoint Depression Visibility Wind Speed Wind Dir Waves Ship Positions

Azul Frontier

Last reported at 2018-Jun-20 01:53 UTC. Time now 2018-Jun-20 18:52 UTC.
Position N 28°19' W 012°50'.

Length 106 m; draft 4.2 m.

Type: Ship (hazmat cat A). MMSI: 374159000.

Date/timePositionNaut miles runAvg speedWind from/ knotsBaromVisibWave heightAir tempDewpointWater temp
2018-Jun-20 01:53N 28°19' W 012°50'4 9.2
2018-Jun-20 01:27N 28°15' W 012°53'4 9.2
2018-Jun-20 00:58N 28°11' W 012°55'5 9.1
2018-Jun-20 00:23N 28°07' W 012°58'3 9.0
2018-Jun-20 00:00N 28°04' W 013°00'7 8.9
2018-Jun-19 23:15N 27°59' W 013°05'24 9.3
2018-Jun-19 20:39N 27°37' W 013°18'11 9.8
2018-Jun-19 19:34N 27°28' W 013°24'23 0.8
2018-Jun-18 16:11N 27°06' W 013°26'  

Dump ship's entire track history